sensor_id;sensor_type;location;lat;lon;timestamp;pressure;altitude;pressure_sealevel;temperature;humidity
56414;BME280;42318;48.452;19.526;2023-02-11T00:02:32;100066.78;;;19.96;42.14
56414;BME280;42318;48.452;19.526;2023-02-11T00:10:04;100077.84;;;20.01;42.03
56414;BME280;42318;48.452;19.526;2023-02-11T00:17:37;100061.75;;;19.99;42.34
56414;BME280;42318;48.452;19.526;2023-02-11T00:25:08;100075.78;;;19.96;42.16
56414;BME280;42318;48.452;19.526;2023-02-11T00:32:39;100068.47;;;19.97;42.33
56414;BME280;42318;48.452;19.526;2023-02-11T00:40:12;100073.28;;;19.88;42.53
56414;BME280;42318;48.452;19.526;2023-02-11T00:47:45;100065.78;;;19.84;42.35
56414;BME280;42318;48.452;19.526;2023-02-11T00:55:16;100065.16;;;19.82;42.15
56414;BME280;42318;48.452;19.526;2023-02-11T01:02:47;100056.41;;;19.80;42.18
56414;BME280;42318;48.452;19.526;2023-02-11T01:10:18;100060.78;;;19.81;42.16
56414;BME280;42318;48.452;19.526;2023-02-11T01:17:49;100051.81;;;19.73;42.04
56414;BME280;42318;48.452;19.526;2023-02-11T01:25:20;100061.44;;;19.76;42.03
56414;BME280;42318;48.452;19.526;2023-02-11T01:32:51;100059.97;;;19.73;41.99
56414;BME280;42318;48.452;19.526;2023-02-11T01:40:21;100052.03;;;19.72;41.62
56414;BME280;42318;48.452;19.526;2023-02-11T01:47:52;100041.81;;;19.67;41.97
56414;BME280;42318;48.452;19.526;2023-02-11T01:55:23;100047.25;;;19.67;41.95
56414;BME280;42318;48.452;19.526;2023-02-11T02:03:19;100045.59;;;19.66;41.77
56414;BME280;42318;48.452;19.526;2023-02-11T02:10:52;100022.38;;;19.64;41.79
56414;BME280;42318;48.452;19.526;2023-02-11T02:34:43;99999.16;;;19.61;41.69
56414;BME280;42318;48.452;19.526;2023-02-11T02:42:15;99985.19;;;19.58;41.82
56414;BME280;42318;48.452;19.526;2023-02-11T02:49:46;99976.19;;;19.57;41.66
56414;BME280;42318;48.452;19.526;2023-02-11T03:05:03;99956.13;;;19.52;41.74
56414;BME280;42318;48.452;19.526;2023-02-11T03:12:36;99946.94;;;19.53;41.74
56414;BME280;42318;48.452;19.526;2023-02-11T03:20:09;99927.91;;;19.53;41.69
56414;BME280;42318;48.452;19.526;2023-02-11T03:27:47;99924.72;;;19.49;41.68
56414;BME280;42318;48.452;19.526;2023-02-11T03:51:00;99930.81;;;19.44;41.80
56414;BME280;42318;48.452;19.526;2023-02-11T03:58:33;99922.88;;;19.43;41.82
56414;BME280;42318;48.452;19.526;2023-02-11T04:06:04;99911.41;;;19.41;41.68
56414;BME280;42318;48.452;19.526;2023-02-11T04:13:35;99901.78;;;19.38;41.67
56414;BME280;42318;48.452;19.526;2023-02-11T04:21:05;99899.50;;;19.35;41.51
56414;BME280;42318;48.452;19.526;2023-02-11T04:28:36;99913.09;;;19.35;41.71
56414;BME280;42318;48.452;19.526;2023-02-11T04:36:07;99881.16;;;19.31;41.68
56414;BME280;42318;48.452;19.526;2023-02-11T04:43:38;99886.78;;;19.29;41.58
56414;BME280;42318;48.452;19.526;2023-02-11T04:51:09;99878.44;;;19.31;41.71
56414;BME280;42318;48.452;19.526;2023-02-11T04:58:39;99868.81;;;19.28;41.63
56414;BME280;42318;48.452;19.526;2023-02-11T05:06:11;99866.53;;;19.25;41.73
56414;BME280;42318;48.452;19.526;2023-02-11T05:13:42;99853.41;;;19.22;41.57
56414;BME280;42318;48.452;19.526;2023-02-11T05:21:16;99845.63;;;19.26;41.69
56414;BME280;42318;48.452;19.526;2023-02-11T05:28:48;99836.03;;;19.23;41.41
56414;BME280;42318;48.452;19.526;2023-02-11T05:36:18;99820.78;;;19.22;41.27
56414;BME280;42318;48.452;19.526;2023-02-11T05:43:50;99816.63;;;19.20;41.82
56414;BME280;42318;48.452;19.526;2023-02-11T05:51:21;99818.50;;;19.19;41.42
56414;BME280;42318;48.452;19.526;2023-02-11T05:58:52;99822.50;;;19.17;41.53
56414;BME280;42318;48.452;19.526;2023-02-11T06:06:24;99833.97;;;19.19;41.61
56414;BME280;42318;48.452;19.526;2023-02-11T06:13:55;99835.47;;;19.14;41.62
56414;BME280;42318;48.452;19.526;2023-02-11T06:21:26;99829.81;;;19.16;41.53
56414;BME280;42318;48.452;19.526;2023-02-11T06:28:59;99818.34;;;19.14;41.38
56414;BME280;42318;48.452;19.526;2023-02-11T06:36:30;99801.41;;;19.12;41.42
56414;BME280;42318;48.452;19.526;2023-02-11T06:44:01;99808.97;;;19.10;41.39
56414;BME280;42318;48.452;19.526;2023-02-11T06:51:32;99799.13;;;19.09;41.49
56414;BME280;42318;48.452;19.526;2023-02-11T06:59:03;99796.19;;;19.10;41.65
56414;BME280;42318;48.452;19.526;2023-02-11T07:06:34;99789.72;;;19.11;41.43
56414;BME280;42318;48.452;19.526;2023-02-11T07:14:07;99781.38;;;19.06;41.32
56414;BME280;42318;48.452;19.526;2023-02-11T07:21:38;99791.81;;;19.09;41.49
56414;BME280;42318;48.452;19.526;2023-02-11T07:29:09;99804.34;;;19.10;41.13
56414;BME280;42318;48.452;19.526;2023-02-11T07:36:39;99782.84;;;19.09;41.38
56414;BME280;42318;48.452;19.526;2023-02-11T07:44:13;99766.31;;;19.10;41.17
56414;BME280;42318;48.452;19.526;2023-02-11T07:51:44;99774.66;;;19.16;41.10
56414;BME280;42318;48.452;19.526;2023-02-11T07:59:15;99757.72;;;19.13;41.13
56414;BME280;42318;48.452;19.526;2023-02-11T08:06:46;99749.56;;;19.13;41.04
56414;BME280;42318;48.452;19.526;2023-02-11T08:14:17;99741.03;;;19.10;41.22
56414;BME280;42318;48.452;19.526;2023-02-11T08:21:48;99734.34;;;19.12;41.22
56414;BME280;42318;48.452;19.526;2023-02-11T08:29:19;99760.00;;;19.17;40.95
56414;BME280;42318;48.452;19.526;2023-02-11T08:36:50;99749.91;;;19.24;41.12
56414;BME280;42318;48.452;19.526;2023-02-11T08:44:21;99738.59;;;19.27;40.83
56414;BME280;42318;48.452;19.526;2023-02-11T08:51:52;99724.97;;;19.33;41.23
56414;BME280;42318;48.452;19.526;2023-02-11T08:59:24;99713.03;;;19.34;40.99
56414;BME280;42318;48.452;19.526;2023-02-11T09:06:56;99722.63;;;19.37;40.76
56414;BME280;42318;48.452;19.526;2023-02-11T09:14:27;99729.69;;;19.44;41.28
56414;BME280;42318;48.452;19.526;2023-02-11T09:21:58;99737.38;;;19.54;41.29
56414;BME280;42318;48.452;19.526;2023-02-11T09:29:28;99714.97;;;19.59;41.45
56414;BME280;42318;48.452;19.526;2023-02-11T09:37:00;99713.63;;;19.68;41.44
56414;BME280;42318;48.452;19.526;2023-02-11T09:44:33;99695.13;;;19.76;41.72
56414;BME280;42318;48.452;19.526;2023-02-11T09:52:11;99688.25;;;19.74;41.94
56414;BME280;42318;48.452;19.526;2023-02-11T09:59:44;99677.66;;;19.84;42.35
56414;BME280;42318;48.452;19.526;2023-02-11T10:07:55;99670.66;;;19.95;42.22
56414;BME280;42318;48.452;19.526;2023-02-11T10:15:22;99656.91;;;20.08;42.12
56414;BME280;42318;48.452;19.526;2023-02-11T10:23:00;99621.75;;;20.06;42.07
56414;BME280;42318;48.452;19.526;2023-02-11T10:30:36;99614.56;;;20.12;42.13
56414;BME280;42318;48.452;19.526;2023-02-11T10:38:10;99598.84;;;20.14;42.30
56414;BME280;42318;48.452;19.526;2023-02-11T10:45:45;99586.53;;;20.12;42.43
56414;BME280;42318;48.452;19.526;2023-02-11T10:53:19;99577.81;;;20.21;42.33
56414;BME280;42318;48.452;19.526;2023-02-11T11:00:52;99577.22;;;20.19;42.01
56414;BME280;42318;48.452;19.526;2023-02-11T11:23:54;99547.56;;;20.29;41.98
56414;BME280;42318;48.452;19.526;2023-02-11T11:31:36;99525.06;;;20.22;41.93
56414;BME280;42318;48.452;19.526;2023-02-11T11:39:20;99513.34;;;20.22;42.09
56414;BME280;42318;48.452;19.526;2023-02-11T11:54:35;99498.78;;;20.28;41.97
56414;BME280;42318;48.452;19.526;2023-02-11T12:02:50;99499.25;;;20.25;42.21
56414;BME280;42318;48.452;19.526;2023-02-11T12:26:19;99453.22;;;20.23;42.09
56414;BME280;42318;48.452;19.526;2023-02-11T12:57:44;99387.69;;;20.25;42.00
56414;BME280;42318;48.452;19.526;2023-02-11T13:05:28;99379.53;;;20.25;42.05
56414;BME280;42318;48.452;19.526;2023-02-11T13:13:08;99376.81;;;20.25;41.98
56414;BME280;42318;48.452;19.526;2023-02-11T13:20:57;99376.81;;;20.25;41.88
56414;BME280;42318;48.452;19.526;2023-02-11T13:36:26;99377.03;;;20.23;41.70
56414;BME280;42318;48.452;19.526;2023-02-11T13:51:40;99386.75;;;20.19;41.87
56414;BME280;42318;48.452;19.526;2023-02-11T14:07:25;99357.50;;;20.26;41.81
56414;BME280;42318;48.452;19.526;2023-02-11T14:15:20;99365.44;;;20.28;42.08
56414;BME280;42318;48.452;19.526;2023-02-11T14:22:52;99349.34;;;20.26;42.41
56414;BME280;42318;48.452;19.526;2023-02-11T14:39:17;99361.66;;;20.29;42.65
56414;BME280;42318;48.452;19.526;2023-02-11T14:46:47;99336.94;;;20.30;42.80
56414;BME280;42318;48.452;19.526;2023-02-11T14:54:24;99331.84;;;20.34;42.77
56414;BME280;42318;48.452;19.526;2023-02-11T15:01:56;99287.81;;;20.37;43.11
56414;BME280;42318;48.452;19.526;2023-02-11T15:09:36;99289.94;;;20.35;43.08
56414;BME280;42318;48.452;19.526;2023-02-11T15:17:14;99287.81;;;20.37;42.99
56414;BME280;42318;48.452;19.526;2023-02-11T15:32:36;99292.41;;;20.36;43.29
56414;BME280;42318;48.452;19.526;2023-02-11T15:40:25;99282.97;;;20.39;43.22
56414;BME280;42318;48.452;19.526;2023-02-11T15:48:13;99249.03;;;20.42;43.21
56414;BME280;42318;48.452;19.526;2023-02-11T15:55:45;99243.22;;;20.50;43.29
56414;BME280;42318;48.452;19.526;2023-02-11T16:03:25;99306.78;;;20.55;44.04
56414;BME280;42318;48.452;19.526;2023-02-11T16:11:03;99313.88;;;20.56;44.71
56414;BME280;42318;48.452;19.526;2023-02-11T16:18:43;99312.81;;;20.57;45.13
56414;BME280;42318;48.452;19.526;2023-02-11T16:26:38;99307.13;;;20.59;45.07
56414;BME280;42318;48.452;19.526;2023-02-11T16:34:19;99337.53;;;20.56;45.02
56414;BME280;42318;48.452;19.526;2023-02-11T16:41:50;99337.66;;;20.61;45.13
56414;BME280;42318;48.452;19.526;2023-02-11T16:49:25;99359.56;;;20.54;45.31
56414;BME280;42318;48.452;19.526;2023-02-11T16:56:57;99338.03;;;20.53;45.43
56414;BME280;42318;48.452;19.526;2023-02-11T17:04:29;99337.44;;;20.51;45.08
56414;BME280;42318;48.452;19.526;2023-02-11T17:12:03;99343.59;;;20.58;45.16
56414;BME280;42318;48.452;19.526;2023-02-11T17:19:34;99332.69;;;20.58;45.02
56414;BME280;42318;48.452;19.526;2023-02-11T17:27:04;99339.44;;;20.55;44.85
56414;BME280;42318;48.452;19.526;2023-02-11T17:34:35;99339.91;;;20.52;45.13
56414;BME280;42318;48.452;19.526;2023-02-11T17:42:06;99317.78;;;20.49;44.87
56414;BME280;42318;48.452;19.526;2023-02-11T17:49:38;99314.47;;;20.47;44.39
56414;BME280;42318;48.452;19.526;2023-02-11T17:57:11;99306.56;;;20.45;44.54
56414;BME280;42318;48.452;19.526;2023-02-11T18:04:42;99306.22;;;20.42;44.59
56414;BME280;42318;48.452;19.526;2023-02-11T18:12:13;99321.94;;;20.40;44.44
56414;BME280;42318;48.452;19.526;2023-02-11T18:19:44;99309.38;;;20.38;44.16
56414;BME280;42318;48.452;19.526;2023-02-11T18:27:14;99314.81;;;20.38;43.85
56414;BME280;42318;48.452;19.526;2023-02-11T18:34:45;99301.06;;;20.33;43.91
56414;BME280;42318;48.452;19.526;2023-02-11T18:42:18;99315.88;;;20.26;43.85
56414;BME280;42318;48.452;19.526;2023-02-11T18:49:49;99300.94;;;20.28;43.64
56414;BME280;42318;48.452;19.526;2023-02-11T18:57:20;99303.69;;;20.28;44.07
56414;BME280;42318;48.452;19.526;2023-02-11T19:04:51;99294.44;;;20.29;44.14
56414;BME280;42318;48.452;19.526;2023-02-11T19:12:22;99293.84;;;20.27;44.38
56414;BME280;42318;48.452;19.526;2023-02-11T19:19:52;99283.09;;;20.32;44.70
56414;BME280;42318;48.452;19.526;2023-02-11T19:27:23;99283.44;;;20.36;44.58
56414;BME280;42318;48.452;19.526;2023-02-11T19:34:54;99306.28;;;20.35;44.58
56414;BME280;42318;48.452;19.526;2023-02-11T19:42:25;99295.63;;;20.33;44.33
56414;BME280;42318;48.452;19.526;2023-02-11T19:49:56;99295.88;;;20.32;44.29
56414;BME280;42318;48.452;19.526;2023-02-11T19:57:27;99308.41;;;20.33;44.52
56414;BME280;42318;48.452;19.526;2023-02-11T20:04:58;99303.78;;;20.33;44.84
56414;BME280;42318;48.452;19.526;2023-02-11T20:12:29;99310.88;;;20.34;44.73
56414;BME280;42318;48.452;19.526;2023-02-11T20:20:00;99303.78;;;20.33;45.15
56414;BME280;42318;48.452;19.526;2023-02-11T20:27:31;99309.22;;;20.33;45.00
56414;BME280;42318;48.452;19.526;2023-02-11T20:35:06;99298.09;;;20.35;45.25
56414;BME280;42318;48.452;19.526;2023-02-11T20:42:38;99287.09;;;20.30;45.04
56414;BME280;42318;48.452;19.526;2023-02-11T20:50:10;99285.94;;;20.26;44.75
56414;BME280;42318;48.452;19.526;2023-02-11T20:57:41;99290.53;;;20.37;43.79
56414;BME280;42318;48.452;19.526;2023-02-11T21:05:12;99286.56;;;20.40;44.05
56414;BME280;42318;48.452;19.526;2023-02-11T21:12:43;99311.06;;;20.40;44.22
56414;BME280;42318;48.452;19.526;2023-02-11T21:20:13;99301.00;;;20.40;43.85
56414;BME280;42318;48.452;19.526;2023-02-11T21:27:44;99295.31;;;20.42;43.81
56414;BME280;42318;48.452;19.526;2023-02-11T21:35:15;99296.59;;;20.39;43.88
56414;BME280;42318;48.452;19.526;2023-02-11T21:42:46;99310.00;;;20.41;43.93
56414;BME280;42318;48.452;19.526;2023-02-11T21:50:17;99319.88;;;20.35;43.76
56414;BME280;42318;48.452;19.526;2023-02-11T21:57:48;99314.81;;;20.38;43.86
56414;BME280;42318;48.452;19.526;2023-02-11T22:05:18;99330.69;;;20.42;43.97
56414;BME280;42318;48.452;19.526;2023-02-11T22:12:50;99322.06;;;20.45;43.51
56414;BME280;42318;48.452;19.526;2023-02-11T22:20:21;99320.88;;;20.41;43.49
56414;BME280;42318;48.452;19.526;2023-02-11T22:27:52;99337.22;;;20.41;43.37
56414;BME280;42318;48.452;19.526;2023-02-11T22:35:23;99352.72;;;20.40;43.81
56414;BME280;42318;48.452;19.526;2023-02-11T22:42:54;99356.84;;;20.43;43.92
56414;BME280;42318;48.452;19.526;2023-02-11T22:50:25;99365.72;;;20.50;43.93
56414;BME280;42318;48.452;19.526;2023-02-11T22:57:55;99364.53;;;20.46;43.84
56414;BME280;42318;48.452;19.526;2023-02-11T23:05:26;99368.34;;;20.45;43.61
56414;BME280;42318;48.452;19.526;2023-02-11T23:12:57;99366.91;;;20.42;43.83
56414;BME280;42318;48.452;19.526;2023-02-11T23:20:28;99384.56;;;20.40;44.09
56414;BME280;42318;48.452;19.526;2023-02-11T23:27:59;99359.59;;;20.43;43.92
56414;BME280;42318;48.452;19.526;2023-02-11T23:35:30;99350.09;;;20.45;44.21
56414;BME280;42318;48.452;19.526;2023-02-11T23:43:01;99346.56;;;20.45;43.63
56414;BME280;42318;48.452;19.526;2023-02-11T23:50:32;99346.56;;;20.45;43.96
56414;BME280;42318;48.452;19.526;2023-02-11T23:58:04;99353.91;;;20.44;43.48
